sensor_id;sensor_type;location;lat;lon;timestamp;pressure;altitude;pressure_sealevel;temperature;humidity
73860;BME280;62197;51.632;13.700;2023-03-23T00:01:20;99422.03;;;10.86;79.97
73860;BME280;62197;51.632;13.700;2023-03-23T00:03:51;99416.50;;;10.81;80.12
73860;BME280;62197;51.632;13.700;2023-03-23T00:06:18;99426.66;;;10.71;81.39
73860;BME280;62197;51.632;13.700;2023-03-23T00:08:46;99413.69;;;10.66;81.51
73860;BME280;62197;51.632;13.700;2023-03-23T00:11:18;99413.97;;;10.70;82.58
73860;BME280;62197;51.632;13.700;2023-03-23T00:13:45;99421.13;;;10.71;81.98
73860;BME280;62197;51.632;13.700;2023-03-23T00:16:12;99417.25;;;10.67;82.04
73860;BME280;62197;51.632;13.700;2023-03-23T00:18:49;99415.31;;;10.67;83.10
73860;BME280;62197;51.632;13.700;2023-03-23T00:21:23;99405.91;;;10.63;82.92
73860;BME280;62197;51.632;13.700;2023-03-23T00:23:53;99401.75;;;10.61;83.19
73860;BME280;62197;51.632;13.700;2023-03-23T00:26:18;99398.75;;;10.62;83.33
73860;BME280;62197;51.632;13.700;2023-03-23T00:28:45;99405.91;;;10.63;83.42
73860;BME280;62197;51.632;13.700;2023-03-23T00:31:11;99414.75;;;10.60;84.09
73860;BME280;62197;51.632;13.700;2023-03-23T00:33:38;99403.66;;;10.55;84.29
73860;BME280;62197;51.632;13.700;2023-03-23T00:38:34;99398.19;;;10.60;85.47
73860;BME280;62197;51.632;13.700;2023-03-23T00:40:59;99392.13;;;10.58;85.65
73860;BME280;62197;51.632;13.700;2023-03-23T00:43:28;99392.13;;;10.63;85.02
73860;BME280;62197;51.632;13.700;2023-03-23T00:45:56;99386.03;;;10.61;84.82
73860;BME280;62197;51.632;13.700;2023-03-23T00:48:23;99392.13;;;10.63;85.26
73860;BME280;62197;51.632;13.700;2023-03-23T00:50:49;99384.41;;;10.60;85.46
73860;BME280;62197;51.632;13.700;2023-03-23T00:53:15;99384.91;;;10.57;85.83
73860;BME280;62197;51.632;13.700;2023-03-23T00:55:42;99384.41;;;10.60;85.78
73860;BME280;62197;51.632;13.700;2023-03-23T00:58:08;99374.44;;;10.59;85.57
73860;BME280;62197;51.632;13.700;2023-03-23T01:00:34;99373.38;;;10.60;85.23
73860;BME280;62197;51.632;13.700;2023-03-23T01:02:59;99370.03;;;10.58;86.23
73860;BME280;62197;51.632;13.700;2023-03-23T01:05:24;99371.69;;;10.59;86.20
73860;BME280;62197;51.632;13.700;2023-03-23T01:07:58;99368.38;;;10.57;86.83
73860;BME280;62197;51.632;13.700;2023-03-23T01:10:24;99358.72;;;10.55;86.25
73860;BME280;62197;51.632;13.700;2023-03-23T01:12:51;99363.41;;;10.54;86.12
73860;BME280;62197;51.632;13.700;2023-03-23T01:15:17;99355.06;;;10.49;87.04
73860;BME280;62197;51.632;13.700;2023-03-23T01:17:44;99356.16;;;10.43;87.72
73860;BME280;62197;51.632;13.700;2023-03-23T01:20:10;99351.19;;;10.40;87.87
73860;BME280;62197;51.632;13.700;2023-03-23T01:22:37;99348.41;;;10.40;87.67
73860;BME280;62197;51.632;13.700;2023-03-23T01:25:02;99334.63;;;10.35;87.38
73860;BME280;62197;51.632;13.700;2023-03-23T01:27:28;99343.25;;;10.49;87.13
73860;BME280;62197;51.632;13.700;2023-03-23T01:29:53;99337.97;;;10.47;86.54
73860;BME280;62197;51.632;13.700;2023-03-23T01:32:18;99339.06;;;10.46;86.71
73860;BME280;62197;51.632;13.700;2023-03-23T01:34:44;99331.31;;;10.38;87.67
73860;BME280;62197;51.632;13.700;2023-03-23T01:37:09;99342.91;;;10.40;87.57
73860;BME280;62197;51.632;13.700;2023-03-23T01:39:38;99339.56;;;10.33;87.80
73860;BME280;62197;51.632;13.700;2023-03-23T01:42:03;99325.50;;;10.30;88.14
73860;BME280;62197;51.632;13.700;2023-03-23T01:46:57;99334.56;;;10.25;88.49
73860;BME280;62197;51.632;13.700;2023-03-23T01:49:28;99325.44;;;10.25;87.92
73860;BME280;62197;51.632;13.700;2023-03-23T01:52:02;99323.47;;;10.20;88.56
73860;BME280;62197;51.632;13.700;2023-03-23T01:54:28;99331.19;;;10.18;88.89
73860;BME280;62197;51.632;13.700;2023-03-23T01:57:04;99329.75;;;10.11;89.32
73860;BME280;62197;51.632;13.700;2023-03-23T01:59:32;99334.94;;;10.07;89.23
73860;BME280;62197;51.632;13.700;2023-03-23T02:01:58;99327.16;;;9.99;90.07
73860;BME280;62197;51.632;13.700;2023-03-23T02:04:25;99331.81;;;9.93;90.77
73860;BME280;62197;51.632;13.700;2023-03-23T02:06:52;99332.56;;;9.84;91.54
73860;BME280;62197;51.632;13.700;2023-03-23T02:09:19;99332.84;;;9.82;91.68
73860;BME280;62197;51.632;13.700;2023-03-23T02:11:46;99318.16;;;9.72;92.57
73860;BME280;62197;51.632;13.700;2023-03-23T02:14:12;99315.41;;;9.72;92.95
73860;BME280;62197;51.632;13.700;2023-03-23T02:16:54;99313.75;;;9.71;92.19
73860;BME280;62197;51.632;13.700;2023-03-23T02:22:23;99318.97;;;9.67;93.27
73860;BME280;62197;51.632;13.700;2023-03-23T02:30:43;99311.69;;;9.56;93.40
73860;BME280;62197;51.632;13.700;2023-03-23T02:36:07;99318.56;;;9.54;93.39
73860;BME280;62197;51.632;13.700;2023-03-23T02:38:41;99319.63;;;9.48;93.61
73860;BME280;62197;51.632;13.700;2023-03-23T02:41:09;99312.38;;;9.37;94.13
73860;BME280;62197;51.632;13.700;2023-03-23T02:43:42;99315.59;;;9.29;95.58
73860;BME280;62197;51.632;13.700;2023-03-23T02:46:09;99311.91;;;9.18;96.22
73860;BME280;62197;51.632;13.700;2023-03-23T02:48:36;99294.41;;;9.02;96.54
73860;BME280;62197;51.632;13.700;2023-03-23T02:51:04;99303.94;;;9.22;96.35
73860;BME280;62197;51.632;13.700;2023-03-23T02:53:30;99305.72;;;9.33;95.30
73860;BME280;62197;51.632;13.700;2023-03-23T02:55:59;99300.66;;;9.51;93.97
73860;BME280;62197;51.632;13.700;2023-03-23T02:58:27;99292.16;;;9.58;93.43
73860;BME280;62197;51.632;13.700;2023-03-23T03:00:54;99287.75;;;9.57;93.39
73860;BME280;62197;51.632;13.700;2023-03-23T03:03:23;99277.53;;;9.52;93.03
73860;BME280;62197;51.632;13.700;2023-03-23T03:06:10;99279.44;;;9.52;94.10
73860;BME280;62197;51.632;13.700;2023-03-23T03:08:52;99278.34;;;9.53;93.32
73860;BME280;62197;51.632;13.700;2023-03-23T03:11:20;99277.28;;;9.59;92.11
73860;BME280;62197;51.632;13.700;2023-03-23T03:13:58;99284.53;;;9.70;90.68
73860;BME280;62197;51.632;13.700;2023-03-23T03:16:52;99287.41;;;9.85;89.91
73860;BME280;62197;51.632;13.700;2023-03-23T03:19:24;99289.59;;;9.83;91.41
73860;BME280;62197;51.632;13.700;2023-03-23T03:21:53;99286.28;;;9.81;90.34
73860;BME280;62197;51.632;13.700;2023-03-23T03:24:20;99281.34;;;9.88;89.11
73860;BME280;62197;51.632;13.700;2023-03-23T03:26:50;99280.28;;;9.94;89.56
73860;BME280;62197;51.632;13.700;2023-03-23T03:29:20;99275.06;;;9.97;88.83
73860;BME280;62197;51.632;13.700;2023-03-23T03:31:47;99281.44;;;10.03;89.47
73860;BME280;62197;51.632;13.700;2023-03-23T03:34:15;99277.06;;;10.07;87.75
73860;BME280;62197;51.632;13.700;2023-03-23T03:36:45;99282.09;;;10.15;87.64
73860;BME280;62197;51.632;13.700;2023-03-23T03:39:12;99278.56;;;10.20;86.45
73860;BME280;62197;51.632;13.700;2023-03-23T03:41:40;99266.69;;;10.19;86.68
73860;BME280;62197;51.632;13.700;2023-03-23T03:44:06;99266.69;;;10.24;86.14
73860;BME280;62197;51.632;13.700;2023-03-23T03:46:33;99274.19;;;10.34;85.53
73860;BME280;62197;51.632;13.700;2023-03-23T03:48:59;99275.06;;;10.39;85.14
73860;BME280;62197;51.632;13.700;2023-03-23T03:51:26;99269.84;;;10.48;83.80
73860;BME280;62197;51.632;13.700;2023-03-23T03:53:52;99275.13;;;10.54;83.82
73860;BME280;62197;51.632;13.700;2023-03-23T03:56:17;99265.72;;;10.55;82.90
73860;BME280;62197;51.632;13.700;2023-03-23T03:58:43;99245.81;;;10.43;84.38
73860;BME280;62197;51.632;13.700;2023-03-23T04:01:09;99262.97;;;10.50;83.97
73860;BME280;62197;51.632;13.700;2023-03-23T04:03:38;99264.03;;;10.44;83.78
73860;BME280;62197;51.632;13.700;2023-03-23T04:06:04;99261.88;;;10.56;83.35
73860;BME280;62197;51.632;13.700;2023-03-23T04:08:30;99263.53;;;10.57;82.96
73860;BME280;62197;51.632;13.700;2023-03-23T04:10:57;99270.72;;;10.63;82.78
73860;BME280;62197;51.632;13.700;2023-03-23T04:13:22;99252.53;;;10.67;81.26
73860;BME280;62197;51.632;13.700;2023-03-23T04:15:47;99255.31;;;10.77;81.36
73860;BME280;62197;51.632;13.700;2023-03-23T04:18:14;99260.84;;;10.82;81.78
73860;BME280;62197;51.632;13.700;2023-03-23T04:20:43;99242.06;;;10.74;82.27
73860;BME280;62197;51.632;13.700;2023-03-23T04:23:09;99253.94;;;10.70;82.99
73860;BME280;62197;51.632;13.700;2023-03-23T04:25:35;99242.06;;;10.64;81.89
73860;BME280;62197;51.632;13.700;2023-03-23T04:28:00;99254.81;;;10.85;81.27
73860;BME280;62197;51.632;13.700;2023-03-23T04:30:27;99257.81;;;10.84;81.40
73860;BME280;62197;51.632;13.700;2023-03-23T04:32:53;99255.59;;;10.86;81.00
73860;BME280;62197;51.632;13.700;2023-03-23T04:35:21;99247.03;;;10.82;81.35
73860;BME280;62197;51.632;13.700;2023-03-23T04:37:47;99249.84;;;10.87;79.93
73860;BME280;62197;51.632;13.700;2023-03-23T04:40:14;99261.44;;;10.89;80.03
73860;BME280;62197;51.632;13.700;2023-03-23T04:42:41;99258.41;;;10.96;79.45
73860;BME280;62197;51.632;13.700;2023-03-23T04:45:12;99245.97;;;11.04;78.96
73860;BME280;62197;51.632;13.700;2023-03-23T04:47:38;99247.63;;;11.00;79.71
73860;BME280;62197;51.632;13.700;2023-03-23T04:50:08;99255.38;;;11.03;78.37
73860;BME280;62197;51.632;13.700;2023-03-23T04:52:34;99249.84;;;11.03;78.63
73860;BME280;62197;51.632;13.700;2023-03-23T04:55:03;99254.84;;;11.11;78.43
73860;BME280;62197;51.632;13.700;2023-03-23T04:57:28;99243.78;;;11.06;79.44
73860;BME280;62197;51.632;13.700;2023-03-23T04:59:54;99250.13;;;11.11;78.61
73860;BME280;62197;51.632;13.700;2023-03-23T05:02:20;99254.56;;;11.12;78.66
73860;BME280;62197;51.632;13.700;2023-03-23T05:04:45;99257.03;;;11.14;78.42
73860;BME280;62197;51.632;13.700;2023-03-23T05:07:11;99255.94;;;11.20;78.82
73860;BME280;62197;51.632;13.700;2023-03-23T05:09:37;99258.44;;;11.21;78.34
73860;BME280;62197;51.632;13.700;2023-03-23T05:12:07;99263.41;;;11.24;78.17
73860;BME280;62197;51.632;13.700;2023-03-23T05:14:33;99254.56;;;11.22;78.29
73860;BME280;62197;51.632;13.700;2023-03-23T05:16:58;99255.41;;;11.33;77.09
73860;BME280;62197;51.632;13.700;2023-03-23T05:19:23;99261.22;;;11.41;77.51
73860;BME280;62197;51.632;13.700;2023-03-23T05:21:48;99249.59;;;11.39;77.44
73860;BME280;62197;51.632;13.700;2023-03-23T05:24:14;99246.00;;;11.39;77.09
73860;BME280;62197;51.632;13.700;2023-03-23T05:26:39;99237.44;;;11.45;78.10
73860;BME280;62197;51.632;13.700;2023-03-23T05:29:04;99242.97;;;11.55;77.35
73860;BME280;62197;51.632;13.700;2023-03-23T05:31:30;99228.31;;;11.55;77.11
73860;BME280;62197;51.632;13.700;2023-03-23T05:33:55;99244.59;;;11.61;77.26
73860;BME280;62197;51.632;13.700;2023-03-23T05:36:21;99244.91;;;11.70;76.78
73860;BME280;62197;51.632;13.700;2023-03-23T05:38:48;99239.91;;;11.77;76.24
73860;BME280;62197;51.632;13.700;2023-03-23T05:41:15;99250.13;;;11.87;75.59
73860;BME280;62197;51.632;13.700;2023-03-23T05:43:40;99259.25;;;11.92;74.65
73860;BME280;62197;51.632;13.700;2023-03-23T05:46:06;99260.38;;;11.96;74.71
73860;BME280;62197;51.632;13.700;2023-03-23T05:48:32;99261.72;;;12.04;74.61
73860;BME280;62197;51.632;13.700;2023-03-23T05:50:58;99270.25;;;12.12;73.85
73860;BME280;62197;51.632;13.700;2023-03-23T05:53:23;99267.50;;;12.17;74.60
73860;BME280;62197;51.632;13.700;2023-03-23T05:55:49;99263.34;;;12.15;74.37
73860;BME280;62197;51.632;13.700;2023-03-23T05:58:14;99266.34;;;12.23;75.63
73860;BME280;62197;51.632;13.700;2023-03-23T06:00:40;99271.91;;;12.18;75.65
73860;BME280;62197;51.632;13.700;2023-03-23T06:03:06;99267.50;;;12.17;76.87
73860;BME280;62197;51.632;13.700;2023-03-23T06:05:31;99260.31;;;12.11;76.56
73860;BME280;62197;51.632;13.700;2023-03-23T06:07:58;99256.44;;;12.12;78.90
73860;BME280;62197;51.632;13.700;2023-03-23T06:10:23;99261.97;;;12.17;78.65
73860;BME280;62197;51.632;13.700;2023-03-23T06:12:49;99257.53;;;12.21;78.29
73860;BME280;62197;51.632;13.700;2023-03-23T06:15:15;99261.41;;;12.15;78.84
73860;BME280;62197;51.632;13.700;2023-03-23T06:17:40;99270.81;;;12.14;78.83
73860;BME280;62197;51.632;13.700;2023-03-23T06:20:06;99260.00;;;12.18;77.68
73860;BME280;62197;51.632;13.700;2023-03-23T06:22:38;99259.97;;;12.28;77.32
73860;BME280;62197;51.632;13.700;2023-03-23T06:25:05;99251.94;;;12.31;77.77
73860;BME280;62197;51.632;13.700;2023-03-23T06:27:31;99253.63;;;12.32;77.92
73860;BME280;62197;51.632;13.700;2023-03-23T06:29:56;99253.56;;;12.37;78.79
73860;BME280;62197;51.632;13.700;2023-03-23T06:32:22;99260.22;;;12.46;77.91
73860;BME280;62197;51.632;13.700;2023-03-23T06:34:48;99255.19;;;12.53;77.55
73860;BME280;62197;51.632;13.700;2023-03-23T06:37:14;99251.56;;;12.53;78.84
73860;BME280;62197;51.632;13.700;2023-03-23T06:39:41;99264.59;;;12.52;77.99
73860;BME280;62197;51.632;13.700;2023-03-23T06:42:09;99268.97;;;12.58;77.98
73860;BME280;62197;51.632;13.700;2023-03-23T06:44:36;99268.97;;;12.58;77.33
73860;BME280;62197;51.632;13.700;2023-03-23T06:47:01;99271.75;;;12.63;77.93
73860;BME280;62197;51.632;13.700;2023-03-23T06:49:27;99280.31;;;12.62;77.68
73860;BME280;62197;51.632;13.700;2023-03-23T06:51:52;99286.13;;;12.60;79.05
73860;BME280;62197;51.632;13.700;2023-03-23T06:54:18;99286.94;;;12.66;76.40
73860;BME280;62197;51.632;13.700;2023-03-23T06:56:43;99297.13;;;12.76;76.08
73860;BME280;62197;51.632;13.700;2023-03-23T06:59:08;99295.44;;;12.85;75.75
73860;BME280;62197;51.632;13.700;2023-03-23T07:01:35;99291.50;;;12.96;74.64
73860;BME280;62197;51.632;13.700;2023-03-23T07:04:01;99302.28;;;13.02;74.68
73860;BME280;62197;51.632;13.700;2023-03-23T07:06:27;99315.22;;;13.17;73.90
73860;BME280;62197;51.632;13.700;2023-03-23T07:08:52;99317.22;;;13.11;75.76
73860;BME280;62197;51.632;13.700;2023-03-23T07:11:17;99334.72;;;12.97;76.62
73860;BME280;62197;51.632;13.700;2023-03-23T07:13:43;99331.13;;;12.91;79.46
73860;BME280;62197;51.632;13.700;2023-03-23T07:16:08;99329.81;;;12.79;79.67
73860;BME280;62197;51.632;13.700;2023-03-23T07:18:34;99336.75;;;12.66;81.08
73860;BME280;62197;51.632;13.700;2023-03-23T07:20:59;99333.44;;;12.64;80.66
73860;BME280;62197;51.632;13.700;2023-03-23T07:23:25;99336.47;;;12.73;80.29
73860;BME280;62197;51.632;13.700;2023-03-23T07:25:51;99334.00;;;12.71;79.67
73860;BME280;62197;51.632;13.700;2023-03-23T07:28:17;99348.66;;;12.66;80.11
73860;BME280;62197;51.632;13.700;2023-03-23T07:30:43;99352.56;;;12.65;81.31
73860;BME280;62197;51.632;13.700;2023-03-23T07:33:09;99353.44;;;12.56;80.84
73860;BME280;62197;51.632;13.700;2023-03-23T07:35:35;99361.16;;;12.59;81.36
73860;BME280;62197;51.632;13.700;2023-03-23T07:38:02;99370.84;;;12.56;82.21
73860;BME280;62197;51.632;13.700;2023-03-23T07:40:28;99360.06;;;12.60;83.24
73860;BME280;62197;51.632;13.700;2023-03-23T07:42:56;99372.50;;;12.67;83.38
73860;BME280;62197;51.632;13.700;2023-03-23T07:45:22;99360.34;;;12.53;85.19
73860;BME280;62197;51.632;13.700;2023-03-23T07:47:47;99364.50;;;12.41;86.83
73860;BME280;62197;51.632;13.700;2023-03-23T07:50:13;99373.66;;;12.41;88.96
73860;BME280;62197;51.632;13.700;2023-03-23T07:52:39;99375.59;;;12.46;89.24
73860;BME280;62197;51.632;13.700;2023-03-23T07:55:07;99382.25;;;12.40;91.37
73860;BME280;62197;51.632;13.700;2023-03-23T07:57:33;99379.19;;;12.31;93.59
73860;BME280;62197;51.632;13.700;2023-03-23T07:59:59;99378.66;;;12.24;93.38
73860;BME280;62197;51.632;13.700;2023-03-23T08:02:24;99380.31;;;12.25;94.16
73860;BME280;62197;51.632;13.700;2023-03-23T08:04:50;99386.09;;;12.54;93.67
73860;BME280;62197;51.632;13.700;2023-03-23T08:07:19;99384.69;;;12.51;94.14
73860;BME280;62197;51.632;13.700;2023-03-23T08:09:50;99375.28;;;12.52;93.24
73860;BME280;62197;51.632;13.700;2023-03-23T08:12:16;99380.31;;;12.35;95.55
73860;BME280;62197;51.632;13.700;2023-03-23T08:14:42;99371.75;;;12.27;97.97
73860;BME280;62197;51.632;13.700;2023-03-23T08:17:08;99387.25;;;12.33;97.42
73860;BME280;62197;51.632;13.700;2023-03-23T08:19:35;99390.81;;;12.23;99.70
73860;BME280;62197;51.632;13.700;2023-03-23T08:22:05;99385.56;;;12.22;99.35
73860;BME280;62197;51.632;13.700;2023-03-23T08:24:31;99397.22;;;12.19;98.48
73860;BME280;62197;51.632;13.700;2023-03-23T08:26:58;99382.00;;;12.16;98.98
73860;BME280;62197;51.632;13.700;2023-03-23T08:29:23;99389.75;;;12.09;99.46
73860;BME280;62197;51.632;13.700;2023-03-23T08:31:49;99394.16;;;12.20;100.00
73860;BME280;62197;51.632;13.700;2023-03-23T08:34:15;99397.75;;;12.26;98.69
73860;BME280;62197;51.632;13.700;2023-03-23T08:36:41;99393.03;;;12.26;100.00
73860;BME280;62197;51.632;13.700;2023-03-23T08:39:09;99383.06;;;12.35;100.00
73860;BME280;62197;51.632;13.700;2023-03-23T08:41:34;99396.34;;;12.38;98.04
73860;BME280;62197;51.632;13.700;2023-03-23T08:44:00;99397.72;;;12.46;98.75
73860;BME280;62197;51.632;13.700;2023-03-23T08:46:25;99395.78;;;12.51;99.71
73860;BME280;62197;51.632;13.700;2023-03-23T08:48:50;99387.44;;;12.56;98.28
73860;BME280;62197;51.632;13.700;2023-03-23T08:51:16;99387.19;;;12.53;97.36
73860;BME280;62197;51.632;13.700;2023-03-23T08:53:41;99387.69;;;12.70;98.65
73860;BME280;62197;51.632;13.700;2023-03-23T08:56:09;99385.72;;;12.76;95.93
73860;BME280;62197;51.632;13.700;2023-03-23T08:58:36;99382.44;;;12.74;92.73
73860;BME280;62197;51.632;13.700;2023-03-23T09:01:03;99388.22;;;12.72;94.11
73860;BME280;62197;51.632;13.700;2023-03-23T09:03:30;99387.69;;;12.70;96.25
73860;BME280;62197;51.632;13.700;2023-03-23T09:05:59;99384.06;;;12.80;96.01
73860;BME280;62197;51.632;13.700;2023-03-23T09:08:25;99387.63;;;12.90;94.74
73860;BME280;62197;51.632;13.700;2023-03-23T09:10:51;99370.50;;;12.83;94.80
73860;BME280;62197;51.632;13.700;2023-03-23T09:13:16;99382.94;;;12.86;92.79
73860;BME280;62197;51.632;13.700;2023-03-23T09:15:42;99377.94;;;12.88;92.57
73860;BME280;62197;51.632;13.700;2023-03-23T09:18:07;99379.03;;;12.97;92.69
73860;BME280;62197;51.632;13.700;2023-03-23T09:20:32;99387.88;;;13.04;89.53
73860;BME280;62197;51.632;13.700;2023-03-23T09:22:58;99394.53;;;12.98;89.88
73860;BME280;62197;51.632;13.700;2023-03-23T09:25:26;99392.88;;;12.97;91.13
73860;BME280;62197;51.632;13.700;2023-03-23T09:27:57;99394.56;;;12.83;91.29
73860;BME280;62197;51.632;13.700;2023-03-23T09:30:25;99387.41;;;12.77;90.51
73860;BME280;62197;51.632;13.700;2023-03-23T09:32:51;99382.44;;;12.74;93.75
73860;BME280;62197;51.632;13.700;2023-03-23T09:35:17;99380.50;;;12.69;94.82
73860;BME280;62197;51.632;13.700;2023-03-23T09:37:44;99389.91;;;12.68;95.00
73860;BME280;62197;51.632;13.700;2023-03-23T09:40:13;99394.00;;;12.86;95.43
73860;BME280;62197;51.632;13.700;2023-03-23T09:42:58;99399.47;;;13.01;96.22
73860;BME280;62197;51.632;13.700;2023-03-23T09:48:42;99392.03;;;13.06;92.58
73860;BME280;62197;51.632;13.700;2023-03-23T09:51:29;99377.84;;;13.18;92.98
73860;BME280;62197;51.632;13.700;2023-03-23T09:54:03;99376.72;;;13.24;93.96
73860;BME280;62197;51.632;13.700;2023-03-23T09:56:30;99364.47;;;13.30;90.08
73860;BME280;62197;51.632;13.700;2023-03-23T09:59:18;99386.81;;;13.43;90.35
73860;BME280;62197;51.632;13.700;2023-03-23T10:01:48;99372.56;;;13.65;88.12
73860;BME280;62197;51.632;13.700;2023-03-23T10:04:30;99379.78;;;13.66;86.93
73860;BME280;62197;51.632;13.700;2023-03-23T10:06:59;99377.44;;;13.78;86.21
73860;BME280;62197;51.632;13.700;2023-03-23T10:09:29;99376.56;;;13.88;82.84
73860;BME280;62197;51.632;13.700;2023-03-23T10:14:52;99394.00;;;14.22;82.12
73860;BME280;62197;51.632;13.700;2023-03-23T10:17:28;99386.00;;;14.20;81.50
73860;BME280;62197;51.632;13.700;2023-03-23T10:20:13;99383.00;;;14.45;80.38
73860;BME280;62197;51.632;13.700;2023-03-23T10:22:50;99372.69;;;14.46;78.55
73860;BME280;62197;51.632;13.700;2023-03-23T10:25:24;99379.00;;;14.57;80.29
73860;BME280;62197;51.632;13.700;2023-03-23T10:28:21;99376.28;;;14.52;77.64
73860;BME280;62197;51.632;13.700;2023-03-23T10:30:56;99359.97;;;14.45;78.48
73860;BME280;62197;51.632;13.700;2023-03-23T10:33:34;99364.56;;;14.55;77.82
73860;BME280;62197;51.632;13.700;2023-03-23T10:36:31;99380.22;;;14.93;76.25
73860;BME280;62197;51.632;13.700;2023-03-23T10:39:15;99359.25;;;14.82;75.40
73860;BME280;62197;51.632;13.700;2023-03-23T10:41:42;99379.81;;;14.81;76.67
73860;BME280;62197;51.632;13.700;2023-03-23T10:44:20;99363.06;;;14.67;74.95
73860;BME280;62197;51.632;13.700;2023-03-23T10:49:24;99379.53;;;14.59;76.18
73860;BME280;62197;51.632;13.700;2023-03-23T10:52:01;99383.16;;;14.54;76.53
73860;BME280;62197;51.632;13.700;2023-03-23T10:54:37;99364.03;;;14.53;76.33
73860;BME280;62197;51.632;13.700;2023-03-23T10:57:13;99374.16;;;14.67;77.57
73860;BME280;62197;51.632;13.700;2023-03-23T10:59:40;99376.34;;;14.70;77.12
73860;BME280;62197;51.632;13.700;2023-03-23T11:02:15;99375.81;;;14.68;76.96
73860;BME280;62197;51.632;13.700;2023-03-23T11:04:45;99380.53;;;14.68;75.14
73860;BME280;62197;51.632;13.700;2023-03-23T11:07:20;99374.19;;;14.62;74.56
73860;BME280;62197;51.632;13.700;2023-03-23T11:09:55;99375.03;;;14.63;74.65
73860;BME280;62197;51.632;13.700;2023-03-23T11:12:21;99390.47;;;14.74;75.23
73860;BME280;62197;51.632;13.700;2023-03-23T11:14:48;99385.50;;;14.71;75.59
73860;BME280;62197;51.632;13.700;2023-03-23T11:17:23;99392.53;;;14.87;75.23
73860;BME280;62197;51.632;13.700;2023-03-23T11:19:49;99396.44;;;14.86;74.53
73860;BME280;62197;51.632;13.700;2023-03-23T11:22:29;99382.31;;;14.82;72.93
73860;BME280;62197;51.632;13.700;2023-03-23T11:25:03;99387.91;;;15.01;73.92
73860;BME280;62197;51.632;13.700;2023-03-23T11:27:29;99385.09;;;15.06;73.95
73860;BME280;62197;51.632;13.700;2023-03-23T11:29:58;99381.38;;;14.92;73.32
73860;BME280;62197;51.632;13.700;2023-03-23T11:32:27;99373.63;;;14.89;73.38
73860;BME280;62197;51.632;13.700;2023-03-23T11:35:23;99388.56;;;14.93;73.56
73860;BME280;62197;51.632;13.700;2023-03-23T11:37:56;99366.41;;;14.88;73.79
73860;BME280;62197;51.632;13.700;2023-03-23T11:40:24;99391.22;;;15.03;73.88
73860;BME280;62197;51.632;13.700;2023-03-23T11:43:01;99385.84;;;14.88;72.55
73860;BME280;62197;51.632;13.700;2023-03-23T11:45:37;99378.78;;;14.77;72.59
73860;BME280;62197;51.632;13.700;2023-03-23T11:48:15;99381.41;;;14.87;72.45
73860;BME280;62197;51.632;13.700;2023-03-23T11:50:50;99382.44;;;14.96;73.01
73860;BME280;62197;51.632;13.700;2023-03-23T11:53:44;99386.56;;;14.98;72.83
73860;BME280;62197;51.632;13.700;2023-03-23T11:58:45;99383.78;;;14.98;70.71
73860;BME280;62197;51.632;13.700;2023-03-23T12:01:20;99383.50;;;15.00;70.27
73860;BME280;62197;51.632;13.700;2023-03-23T12:04:12;99389.31;;;14.98;70.63
73860;BME280;62197;51.632;13.700;2023-03-23T12:07:06;99388.72;;;15.25;70.16
73860;BME280;62197;51.632;13.700;2023-03-23T12:10:02;99396.69;;;15.31;69.82
73860;BME280;62197;51.632;13.700;2023-03-23T12:15:25;99394.22;;;15.30;70.31
73860;BME280;62197;51.632;13.700;2023-03-23T12:21:12;99392.09;;;15.22;70.83
73860;BME280;62197;51.632;13.700;2023-03-23T12:26:30;99393.75;;;15.23;71.00
73860;BME280;62197;51.632;13.700;2023-03-23T12:31:43;99385.84;;;15.11;72.32
73860;BME280;62197;51.632;13.700;2023-03-23T12:34:26;99378.72;;;15.24;72.34
73860;BME280;62197;51.632;13.700;2023-03-23T12:37:21;99366.22;;;15.45;72.30
73860;BME280;62197;51.632;13.700;2023-03-23T12:48:12;99368.16;;;15.82;71.06
73860;BME280;62197;51.632;13.700;2023-03-23T12:50:59;99352.09;;;15.79;70.87
73860;BME280;62197;51.632;13.700;2023-03-23T12:53:32;99352.41;;;15.77;70.86
73860;BME280;62197;51.632;13.700;2023-03-23T12:56:13;99348.00;;;15.90;70.23
73860;BME280;62197;51.632;13.700;2023-03-23T12:58:44;99349.88;;;16.26;69.84
73860;BME280;62197;51.632;13.700;2023-03-23T13:01:18;99337.22;;;16.34;68.13
73860;BME280;62197;51.632;13.700;2023-03-23T13:04:04;99327.16;;;17.06;65.48
73860;BME280;62197;51.632;13.700;2023-03-23T13:06:39;99346.78;;;17.01;66.87
73860;BME280;62197;51.632;13.700;2023-03-23T13:11:43;99345.06;;;16.46;67.60
73860;BME280;62197;51.632;13.700;2023-03-23T13:25:51;99349.94;;;16.08;64.94
73860;BME280;62197;51.632;13.700;2023-03-23T13:28:23;99357.59;;;16.16;62.87
73860;BME280;62197;51.632;13.700;2023-03-23T13:31:12;99349.00;;;16.45;62.78
73860;BME280;62197;51.632;13.700;2023-03-23T13:33:38;99352.78;;;16.35;61.48
73860;BME280;62197;51.632;13.700;2023-03-23T13:36:11;99352.84;;;16.16;60.47
73860;BME280;62197;51.632;13.700;2023-03-23T13:38:38;99356.44;;;16.17;59.56
73860;BME280;62197;51.632;13.700;2023-03-23T13:41:12;99357.97;;;16.09;60.79
73860;BME280;62197;51.632;13.700;2023-03-23T13:43:40;99343.22;;;16.41;60.72
73860;BME280;62197;51.632;13.700;2023-03-23T13:46:13;99345.97;;;16.73;60.29
73860;BME280;62197;51.632;13.700;2023-03-23T13:49:44;99340.91;;;16.75;61.36
73860;BME280;62197;51.632;13.700;2023-03-23T13:51:58;99350.03;;;17.57;60.60
73860;BME280;62197;51.632;13.700;2023-03-23T13:54:41;99334.81;;;17.63;61.62
73860;BME280;62197;51.632;13.700;2023-03-23T13:57:33;99311.13;;;17.25;62.58
73860;BME280;62197;51.632;13.700;2023-03-23T14:00:11;99318.06;;;17.14;65.00
73860;BME280;62197;51.632;13.700;2023-03-23T14:02:39;99319.00;;;16.96;65.12
73860;BME280;62197;51.632;13.700;2023-03-23T14:13:30;99330.44;;;15.38;73.15